Time;durP1;ratioP1;P1;durP2;ratioP2;P2;SDS_P1;SDS_P2;PMS_P1;PMS_P2;Temp;Humidity;BMP_temperature;BMP_pressure;BME280_temperature;BME280_humidity;BME280_pressure;Samples;Min_cycle;Max_cycle;Signal;HPM_P1;HPM_P2
2023/09/10 00:00:58;;;;;;;7.65;5.35;;;;;;;19.56;75.29;100955.22;7384773;19;20778;-75
2023/09/10 00:03:25;;;;;;;7.18;5.25;;;;;;;19.50;75.91;100959.63;7383547;19;20329;-75
2023/09/10 00:05:52;;;;;;;6.82;5.20;;;;;;;19.44;76.10;100952.44;7387270;19;20385;-75
2023/09/10 00:08:19;;;;;;;6.03;4.93;;;;;;;19.39;76.34;100954.19;7389231;19;20821;-75
2023/09/10 00:10:47;;;;;;;5.90;5.30;;;;;;;19.32;76.90;100943.53;7387682;19;20365;-75
2023/09/10 00:13:14;;;;;;;7.78;5.25;;;;;;;19.25;77.00;100953.53;7389474;19;20368;-75
2023/09/10 00:15:40;;;;;;;6.47;5.00;;;;;;;19.19;77.45;100960.66;7384379;19;20411;-75
2023/09/10 00:18:07;;;;;;;6.30;5.63;;;;;;;19.14;77.90;100963.19;7387025;19;20422;-75
2023/09/10 00:20:34;;;;;;;8.93;6.20;;;;;;;19.08;78.18;100964.94;7386171;19;20373;-75
2023/09/10 00:23:01;;;;;;;5.55;5.00;;;;;;;18.98;78.52;100964.63;7381423;19;20375;-75
2023/09/10 00:25:28;;;;;;;6.88;5.00;;;;;;;18.89;79.00;100961.41;7386078;19;20347;-75
2023/09/10 00:27:56;;;;;;;6.00;5.18;;;;;;;18.80;78.77;100978.03;7386808;19;20420;-75
2023/09/10 00:30:24;;;;;;;7.77;5.50;;;;;;;18.73;79.19;100965.47;7385446;19;20415;-75
2023/09/10 00:32:50;;;;;;;7.80;5.70;;;;;;;18.68;79.31;100968.00;7387402;19;20393;-75
2023/09/10 00:35:17;;;;;;;6.28;5.63;;;;;;;18.62;79.64;100954.66;7383122;19;20343;-75
2023/09/10 00:37:44;;;;;;;6.70;5.90;;;;;;;18.55;80.43;100952.00;7385709;19;20360;-76
2023/09/10 00:40:11;;;;;;;6.45;5.80;;;;;;;18.53;81.16;100946.03;7391878;19;20371;-76
2023/09/10 00:42:38;;;;;;;6.37;5.70;;;;;;;18.50;81.79;100957.22;7389574;19;20466;-75
2023/09/10 00:45:07;;;;;;;6.65;6.00;;;;;;;18.46;82.07;100966.75;7391951;19;20800;-75
2023/09/10 00:47:35;;;;;;;6.88;5.40;;;;;;;18.45;82.18;100962.44;7392170;19;20348;-75
2023/09/10 00:50:03;;;;;;;6.28;5.63;;;;;;;18.42;82.83;100965.56;7395437;19;20826;-75
2023/09/10 00:52:30;;;;;;;6.53;5.93;;;;;;;18.34;82.78;100975.53;7396346;19;20389;-75
2023/09/10 00:54:58;;;;;;;6.50;5.72;;;;;;;18.27;82.18;100969.38;7390499;19;20363;-75
2023/09/10 00:57:25;;;;;;;6.55;5.70;;;;;;;18.23;82.21;100967.38;7391729;19;20352;-75
2023/09/10 00:59:53;;;;;;;7.35;5.75;;;;;;;18.17;82.49;100977.13;7390246;19;20362;-76
2023/09/10 01:02:20;;;;;;;6.75;6.05;;;;;;;18.12;82.99;100963.53;7392308;19;20660;-75
2023/09/10 01:04:47;;;;;;;9.55;6.38;;;;;;;18.08;83.07;100973.06;7388430;19;20443;-75
2023/09/10 01:07:14;;;;;;;9.00;6.17;;;;;;;18.05;82.95;100971.63;7391001;19;20404;-75
2023/09/10 01:09:40;;;;;;;6.78;5.85;;;;;;;18.04;83.24;100979.91;7388550;19;20377;-75
2023/09/10 01:12:16;;;;;;;6.70;6.00;;;;;;;18.01;83.39;100966.91;7390776;19;20465;-75
2023/09/10 01:14:55;;;;;;;6.45;5.85;;;;;;;18.00;83.36;100970.63;7388438;19;20723;-75
2023/09/10 01:17:49;;;;;;;7.82;6.18;;;;;;;17.98;83.35;100970.03;7392773;19;20464;-75
2023/09/10 01:20:22;;;;;;;8.48;5.90;;;;;;;17.98;83.90;100975.41;7387408;19;20678;-75
2023/09/10 01:23:14;;;;;;;8.05;6.60;;;;;;;17.98;83.69;100964.66;7390960;19;20372;-75
2023/09/10 01:25:42;;;;;;;7.80;5.80;;;;;;;17.97;83.88;100971.06;7392996;19;20370;-75
2023/09/10 01:28:09;;;;;;;6.88;5.68;;;;;;;17.96;83.80;100962.22;7391804;19;20344;-75
2023/09/10 01:30:36;;;;;;;6.32;5.72;;;;;;;17.97;84.26;100963.84;7387439;19;20396;-75
2023/09/10 01:33:17;;;;;;;6.55;5.90;;;;;;;17.98;84.58;100980.75;7389350;19;20889;-75
2023/09/10 01:36:10;;;;;;;6.13;5.50;;;;;;;17.99;84.52;100969.00;7393570;19;20356;-75
2023/09/10 01:38:57;;;;;;;6.18;5.57;;;;;;;17.99;84.63;100971.69;7388389;19;21198;-76
2023/09/10 01:41:26;;;;;;;6.30;5.70;;;;;;;17.98;84.78;100964.66;7392547;19;20364;-76
2023/09/10 01:43:53;;;;;;;6.70;5.67;;;;;;;17.99;84.76;100971.69;7392615;19;20384;-76
2023/09/10 01:46:23;;;;;;;6.57;5.95;;;;;;;17.97;84.95;100969.22;7391048;19;20436;-75
2023/09/10 01:48:50;;;;;;;6.50;5.82;;;;;;;17.98;85.10;100970.03;7390385;19;20406;-75
2023/09/10 01:51:17;;;;;;;6.65;5.38;;;;;;;17.97;84.98;100968.41;7390947;19;20360;-75
2023/09/10 01:53:46;;;;;;;6.20;5.60;;;;;;;17.96;84.95;100961.38;7389437;19;20346;-75
2023/09/10 01:56:13;;;;;;;6.67;5.70;;;;;;;17.93;84.78;100958.06;7392187;19;20871;-75
2023/09/10 01:58:40;;;;;;;6.70;5.45;;;;;;;17.95;84.99;100959.72;7386527;19;20468;-76
2023/09/10 02:01:07;;;;;;;6.05;5.45;;;;;;;17.93;84.98;100963.44;7390019;19;20393;-74
2023/09/10 02:03:34;;;;;;;6.00;5.40;;;;;;;17.92;85.32;100963.69;7389638;19;20868;-74
2023/09/10 02:06:03;;;;;;;6.38;5.72;;;;;;;17.90;85.33;100974.63;7384603;19;20356;-74
2023/09/10 02:08:30;;;;;;;7.32;5.70;;;;;;;17.87;85.23;100969.72;7388127;19;20369;-73
2023/09/10 02:10:57;;;;;;;6.57;5.77;;;;;;;17.85;85.25;100971.78;7387515;19;20428;-74
2023/09/10 02:13:24;;;;;;;7.60;5.80;;;;;;;17.82;85.61;100968.66;7390977;19;20393;-74
2023/09/10 02:15:51;;;;;;;7.13;6.05;;;;;;;17.80;85.55;100974.25;7388846;19;20392;-74
2023/09/10 02:18:18;;;;;;;7.22;5.65;;;;;;;17.79;85.44;100977.16;7382468;19;20376;-74
2023/09/10 02:20:45;;;;;;;6.75;5.85;;;;;;;17.77;85.56;100980.06;7391415;19;20868;-74
2023/09/10 02:23:11;;;;;;;6.45;5.82;;;;;;;17.76;85.46;100980.25;7387469;19;20372;-74
2023/09/10 02:25:38;;;;;;;7.05;5.90;;;;;;;17.71;85.83;100976.34;7391412;19;20353;-74
2023/09/10 02:28:07;;;;;;;6.45;5.65;;;;;;;17.70;85.69;100976.56;7389924;19;20381;-74
2023/09/10 02:30:34;;;;;;;7.45;6.22;;;;;;;17.67;85.63;100969.78;7392453;19;20411;-74
2023/09/10 02:33:01;;;;;;;6.90;5.72;;;;;;;17.67;85.81;100977.00;7389174;19;20374;-74
2023/09/10 02:35:27;;;;;;;6.93;5.53;;;;;;;17.64;85.75;100978.28;7387726;19;20357;-74
2023/09/10 02:37:54;;;;;;;7.05;6.35;;;;;;;17.61;86.56;100975.19;7385731;19;20386;-74
2023/09/10 02:40:21;;;;;;;7.68;6.72;;;;;;;17.58;87.18;100986.34;7390862;19;20448;-74
2023/09/10 02:42:48;;;;;;;7.68;6.78;;;;;;;17.53;87.13;100990.50;7389604;19;20361;-74
2023/09/10 02:45:15;;;;;;;7.90;6.25;;;;;;;17.50;86.83;100990.09;7389563;19;20365;-74
2023/09/10 02:47:43;;;;;;;6.70;5.93;;;;;;;17.47;87.05;100985.16;7389607;19;20385;-74
2023/09/10 02:50:10;;;;;;;6.90;6.27;;;;;;;17.44;87.33;100993.63;7388857;19;20356;-74
2023/09/10 02:52:37;;;;;;;7.15;6.45;;;;;;;17.41;88.04;100992.19;7387050;19;20368;-74
2023/09/10 02:55:04;;;;;;;7.30;6.60;;;;;;;17.40;88.28;100995.91;7386259;19;20476;-74
2023/09/10 02:57:31;;;;;;;7.57;6.63;;;;;;;17.39;88.96;100998.81;7387224;19;20396;-74
2023/09/10 02:59:57;;;;;;;9.23;6.90;;;;;;;17.38;88.59;100997.16;7386905;19;20436;-74
2023/09/10 03:02:24;;;;;;;8.07;6.55;;;;;;;17.35;88.48;100998.41;7388446;19;20426;-74
2023/09/10 03:04:51;;;;;;;7.90;7.10;;;;;;;17.33;88.72;101000.47;7386265;19;20360;-74
2023/09/10 03:07:18;;;;;;;8.73;6.72;;;;;;;17.33;89.12;101001.28;7389186;19;20450;-74
2023/09/10 03:09:45;;;;;;;8.00;7.20;;;;;;;17.34;89.39;100996.78;7387627;19;20872;-74
2023/09/10 03:12:22;;;;;;;7.53;6.75;;;;;;;17.39;89.41;100999.63;7386317;19;20890;-74
2023/09/10 03:14:51;;;;;;;8.18;7.03;;;;;;;17.34;89.81;100991.41;7384355;19;20376;-74
2023/09/10 03:17:18;;;;;;;7.63;6.87;;;;;;;17.33;89.53;100995.13;7382174;19;20352;-74
2023/09/10 03:19:46;;;;;;;8.10;6.90;;;;;;;17.34;89.32;100991.41;7387777;19;20357;-74
2023/09/10 03:22:14;;;;;;;7.45;6.75;;;;;;;17.36;89.24;100993.88;7385571;19;20376;-74
2023/09/10 03:24:41;;;;;;;8.88;7.45;;;;;;;17.37;89.32;100996.34;7389022;19;20372;-74
2023/09/10 03:27:08;;;;;;;7.68;6.82;;;;;;;17.39;89.11;100988.91;7386864;19;20698;-75
2023/09/10 03:29:36;;;;;;;7.47;6.70;;;;;;;17.38;89.47;100997.16;7390502;19;20364;-75
2023/09/10 03:32:07;;;;;;;9.02;7.25;;;;;;;17.39;89.66;100990.78;7385964;19;20977;-75
2023/09/10 03:34:36;;;;;;;10.15;7.75;;;;;;;17.39;89.86;100991.59;7381824;19;20344;-75
2023/09/10 03:37:05;;;;;;;8.40;7.63;;;;;;;17.38;90.51;100989.94;7387961;19;20349;-75
2023/09/10 03:39:33;;;;;;;9.95;8.55;;;;;;;17.40;90.61;100989.72;7387955;19;20354;-75
2023/09/10 03:42:01;;;;;;;9.30;8.40;;;;;;;17.40;90.44;100987.84;7389226;19;20444;-75
2023/09/10 03:44:27;;;;;;;9.50;8.13;;;;;;;17.40;90.82;100990.53;7383543;19;20445;-75
2023/09/10 03:46:54;;;;;;;8.48;7.70;;;;;;;17.41;90.71;100986.84;7387488;19;20763;-75
2023/09/10 03:49:21;;;;;;;8.45;7.63;;;;;;;17.41;90.61;100992.19;7389365;19;20709;-75
2023/09/10 03:51:51;;;;;;;9.07;8.18;;;;;;;17.42;90.61;100983.09;7384757;19;20369;-75
2023/09/10 03:54:18;;;;;;;9.77;8.50;;;;;;;17.42;91.03;100980.41;7382584;19;20367;-75
2023/09/10 03:56:45;;;;;;;12.25;8.45;;;;;;;17.45;91.14;100981.88;7386106;19;20376;-75
2023/09/10 03:59:12;;;;;;;9.90;8.93;;;;;;;17.44;91.25;100980.22;7388033;19;20947;-74
2023/09/10 04:01:39;;;;;;;9.93;8.93;;;;;;;17.43;91.21;100979.41;7385113;19;20387;-74
2023/09/10 04:04:06;;;;;;;10.65;9.52;;;;;;;17.47;91.25;100974.44;7387963;19;20401;-74
2023/09/10 04:06:33;;;;;;;12.98;11.27;;;;;;;17.46;91.77;100981.63;7388255;19;20432;-74
2023/09/10 04:08:59;;;;;;;10.93;9.82;;;;;;;17.49;91.91;100975.88;7382755;19;20379;-74
2023/09/10 04:11:26;;;;;;;12.23;11.13;;;;;;;17.49;91.98;100978.56;7385815;19;20372;-74
2023/09/10 04:13:53;;;;;;;11.93;10.82;;;;;;;17.56;91.72;100983.06;7387989;19;20431;-74
2023/09/10 04:16:20;;;;;;;13.30;12.00;;;;;;;17.51;92.22;100981.84;7392777;19;20721;-74
2023/09/10 04:18:47;;;;;;;13.35;12.15;;;;;;;17.48;92.59;100984.13;7397445;19;20360;-74
2023/09/10 04:21:14;;;;;;;14.30;12.90;;;;;;;17.48;92.59;100976.06;7396339;19;20359;-75
2023/09/10 04:23:41;;;;;;;15.05;13.65;;;;;;;17.43;93.42;100983.94;7392329;19;20371;-74
2023/09/10 04:26:12;;;;;;;16.90;15.30;;;;;;;17.43;93.68;100979.41;7392034;19;21215;-74
2023/09/10 04:28:40;;;;;;;19.23;17.42;;;;;;;17.42;94.95;100988.47;7392634;19;20340;-74
2023/09/10 04:31:12;;;;;;;21.30;19.40;;;;;;;17.48;95.49;100992.97;7391785;19;20360;-74
2023/09/10 04:33:39;;;;;;;24.42;22.13;;;;;;;17.50;96.60;100990.09;7389135;19;20349;-74
2023/09/10 04:36:06;;;;;;;24.38;22.17;;;;;;;17.53;96.93;100989.66;7391772;19;20352;-74
2023/09/10 04:38:33;;;;;;;25.38;23.17;;;;;;;17.64;96.84;100997.03;7391544;19;20418;-74
2023/09/10 04:41:00;;;;;;;26.30;23.98;;;;;;;17.54;97.06;100991.31;7397655;19;20355;-74
2023/09/10 04:43:27;;;;;;;27.30;24.80;;;;;;;17.71;96.64;100997.81;7390549;19;20368;-74
2023/09/10 04:45:54;;;;;;;27.77;25.17;;;;;;;17.66;97.17;100994.97;7391862;19;20773;-74
2023/09/10 04:48:21;;;;;;;27.77;25.38;;;;;;;17.66;97.96;100994.13;7393687;19;20372;-74
2023/09/10 04:50:49;;;;;;;29.95;27.15;;;;;;;17.70;98.45;101000.72;7393755;19;20900;-74
2023/09/10 04:53:16;;;;;;;32.42;29.55;;;;;;;17.73;98.10;101000.31;7392084;19;20897;-74
2023/09/10 04:55:43;;;;;;;30.08;27.38;;;;;;;17.76;98.36;101015.16;7391985;19;20867;-74
2023/09/10 04:58:12;;;;;;;31.90;29.02;;;;;;;17.80;99.15;101006.44;7394410;19;20787;-74
2023/09/10 05:00:40;;;;;;;33.90;30.90;;;;;;;17.80;99.25;101011.81;7392331;19;20368;-74
2023/09/10 05:03:07;;;;;;;34.63;31.42;;;;;;;17.82;99.88;101011.59;7386398;19;20407;-74
2023/09/10 05:05:35;;;;;;;32.20;29.20;;;;;;;17.82;99.41;101015.13;7375964;19;20368;-74
2023/09/10 05:08:02;;;;;;;32.47;29.52;;;;;;;17.86;99.10;101015.53;7384062;19;20403;-74
2023/09/10 05:10:29;;;;;;;33.53;30.48;;;;;;;17.95;98.98;101024.16;7384378;19;20372;-74
2023/09/10 05:12:57;;;;;;;35.00;31.83;;;;;;;18.01;98.85;101034.84;7382479;19;20357;-74
2023/09/10 05:15:24;;;;;;;34.90;31.73;;;;;;;18.04;99.05;101022.84;7386699;19;20364;-74
2023/09/10 05:17:51;;;;;;;33.97;30.85;;;;;;;18.07;99.32;101027.81;7383341;19;20369;-76
2023/09/10 05:20:21;;;;;;;34.95;31.58;;;;;;;18.09;99.39;101033.78;7389717;19;20728;-76
2023/09/10 05:22:47;;;;;;;34.85;31.75;;;;;;;18.20;98.89;101037.63;7392771;19;20367;-75
2023/09/10 05:25:15;;;;;;;33.93;30.77;;;;;;;18.27;99.03;101041.09;7391903;19;20363;-75
2023/09/10 05:27:42;;;;;;;33.63;30.55;;;;;;;18.29;98.76;101044.38;7385067;19;20395;-75
2023/09/10 05:30:09;;;;;;;35.28;31.88;;;;;;;18.34;100.00;101045.38;7389879;19;20365;-74
2023/09/10 05:32:36;;;;;;;30.80;28.00;;;;;;;18.78;100.00;101049.97;7389843;19;20376;-74
2023/09/10 05:35:03;;;;;;;29.25;26.48;;;;;;;19.07;98.05;101043.13;7395263;19;20365;-74
2023/09/10 05:37:30;;;;;;;25.55;23.15;;;;;;;19.32;96.00;101045.75;7392076;19;20703;-74
2023/09/10 05:39:57;;;;;;;25.55;23.35;;;;;;;19.40;94.94;101040.03;7392480;19;20368;-74
2023/09/10 05:42:24;;;;;;;23.90;21.70;;;;;;;19.51;93.45;101042.00;7390047;19;20357;-74
2023/09/10 05:44:52;;;;;;;22.10;20.00;;;;;;;19.57;92.68;101051.03;7383018;19;20402;-74
2023/09/10 05:47:20;;;;;;;22.60;20.50;;;;;;;19.76;91.65;101051.84;7386450;19;20367;-74
2023/09/10 05:49:47;;;;;;;21.77;19.73;;;;;;;19.94;91.38;101049.13;7387362;19;20412;-74
2023/09/10 05:52:14;;;;;;;20.63;18.63;;;;;;;20.08;90.34;101054.31;7391140;19;20385;-74
2023/09/10 05:54:41;;;;;;;19.42;17.55;;;;;;;19.99;90.86;101058.41;7382647;19;20354;-74
2023/09/10 05:57:08;;;;;;;19.33;17.55;;;;;;;20.11;89.53;101056.56;7382708;19;20374;-74
2023/09/10 05:59:35;;;;;;;19.67;17.75;;;;;;;20.28;88.67;101054.84;7380736;19;20435;-74
2023/09/10 06:02:03;;;;;;;19.58;17.77;;;;;;;20.44;87.46;101047.16;7386585;19;20352;-74
2023/09/10 06:04:32;;;;;;;19.95;17.95;;;;;;;20.47;87.21;101044.81;7387624;19;20432;-74
2023/09/10 06:07:03;;;;;;;19.63;17.83;;;;;;;20.56;86.66;101058.78;7391510;19;20446;-74
2023/09/10 06:09:31;;;;;;;19.67;17.75;;;;;;;20.62;85.84;101052.47;7384545;19;20368;-74
2023/09/10 06:12:00;;;;;;;20.23;18.23;;;;;;;20.62;85.80;101060.56;7388392;19;20360;-74
2023/09/10 06:14:30;;;;;;;21.23;19.23;;;;;;;20.61;85.52;101055.41;7389664;19;20361;-74
2023/09/10 06:16:57;;;;;;;20.20;18.30;;;;;;;20.53;85.98;101061.94;7388772;19;20698;-74
2023/09/10 06:19:24;;;;;;;20.92;18.90;;;;;;;20.51;86.46;101053.28;7390217;19;20736;-74
2023/09/10 06:21:51;;;;;;;21.52;19.48;;;;;;;20.50;86.59;101057.81;7386783;19;20715;-74
2023/09/10 06:24:19;;;;;;;20.83;18.92;;;;;;;20.61;86.80;101053.53;7386212;19;20767;-74
2023/09/10 06:26:46;;;;;;;23.52;21.23;;;;;;;20.72;86.33;101060.81;7381423;19;20363;-76
2023/09/10 06:29:14;;;;;;;22.60;20.50;;;;;;;20.72;86.26;101060.81;7391140;19;20424;-76
2023/09/10 06:31:41;;;;;;;23.52;21.23;;;;;;;20.66;87.01;101056.34;7389442;19;20432;-76
2023/09/10 06:34:08;;;;;;;22.95;20.55;;;;;;;20.62;87.29;101063.28;7388511;19;21005;-76
2023/09/10 06:36:35;;;;;;;24.02;21.58;;;;;;;20.65;87.46;101070.88;7388216;19;20356;-76
2023/09/10 06:39:03;;;;;;;23.13;20.77;;;;;;;20.63;87.64;101072.97;7392552;19;20423;-76
2023/09/10 06:41:30;;;;;;;24.13;21.63;;;;;;;20.67;87.92;101066.06;7382892;19;20439;-76
2023/09/10 06:43:58;;;;;;;24.83;22.00;;;;;;;20.66;87.87;101066.31;7388671;19;20382;-76
2023/09/10 06:46:27;;;;;;;25.42;22.85;;;;;;;20.69;88.20;101065.84;7384372;19;20379;-76
2023/09/10 06:48:54;;;;;;;25.90;23.25;;;;;;;20.74;88.50;101063.25;7391102;19;20376;-76
2023/09/10 06:51:21;;;;;;;27.75;25.02;;;;;;;20.80;88.76;101065.03;7391384;19;20364;-75
2023/09/10 06:53:48;;;;;;;27.80;24.97;;;;;;;20.83;88.58;101063.75;7386977;19;20371;-75
2023/09/10 06:56:14;;;;;;;27.08;24.20;;;;;;;20.90;88.63;101059.06;7390945;19;20722;-75
2023/09/10 06:58:41;;;;;;;27.90;25.20;;;;;;;20.94;88.88;101076.41;7391436;19;20683;-75
2023/09/10 07:01:09;;;;;;;27.98;25.10;;;;;;;20.97;88.27;101076.78;7387358;19;20368;-75
2023/09/10 07:03:37;;;;;;;27.73;24.83;;;;;;;21.02;88.10;101075.22;7383075;19;20348;-76
2023/09/10 07:06:05;;;;;;;27.45;24.75;;;;;;;21.08;88.30;101074.28;7388020;19;20734;-76
2023/09/10 07:08:35;;;;;;;26.92;24.15;;;;;;;21.20;87.89;101077.81;7388921;19;20351;-75
2023/09/10 07:11:02;;;;;;;30.23;25.30;;;;;;;21.30;87.44;101075.34;7386850;19;20378;-75
2023/09/10 07:13:30;;;;;;;27.42;24.65;;;;;;;21.38;86.65;101079.56;7385801;19;20340;-75
2023/09/10 07:15:57;;;;;;;27.25;24.25;;;;;;;21.45;86.42;101074.88;7388053;19;20360;-75
2023/09/10 07:18:24;;;;;;;27.42;24.58;;;;;;;21.56;85.74;101079.41;7386097;19;20666;-75
2023/09/10 07:20:50;;;;;;;27.83;24.98;;;;;;;21.64;85.31;101078.22;7384935;19;20396;-75
2023/09/10 07:23:17;;;;;;;25.58;22.88;;;;;;;21.71;85.16;101078.91;7384028;19;20361;-75
2023/09/10 07:25:45;;;;;;;24.67;22.03;;;;;;;21.83;84.84;101072.66;7386747;19;20360;-75
2023/09/10 07:28:12;;;;;;;24.95;22.17;;;;;;;21.88;83.87;101073.56;7386440;19;20375;-75
2023/09/10 07:30:39;;;;;;;24.15;21.67;;;;;;;22.00;84.50;101070.81;7390027;19;20365;-75
2023/09/10 07:33:05;;;;;;;25.00;22.08;;;;;;;22.15;83.75;101078.38;7386983;19;20407;-75
2023/09/10 07:35:32;;;;;;;25.73;21.70;;;;;;;22.26;83.10;101080.22;7386798;19;20903;-75
2023/09/10 07:37:59;;;;;;;23.97;21.43;;;;;;;22.37;82.30;101087.44;7382615;19;20348;-75
2023/09/10 07:40:26;;;;;;;24.27;21.77;;;;;;;22.45;82.06;101082.72;7385039;19;20351;-75
2023/09/10 07:42:53;;;;;;;23.03;20.63;;;;;;;22.53;81.77;101082.31;7387031;19;20716;-75
2023/09/10 07:45:20;;;;;;;24.00;21.38;;;;;;;22.62;81.78;101086.25;7387404;19;21152;-75
2023/09/10 07:47:47;;;;;;;23.75;21.35;;;;;;;22.71;81.00;101084.75;7385309;19;20328;-75
2023/09/10 07:50:14;;;;;;;22.73;20.37;;;;;;;22.85;80.94;101087.16;7388525;19;20420;-75
2023/09/10 07:52:41;;;;;;;22.33;20.10;;;;;;;22.95;80.15;101087.28;7385927;19;20366;-75
2023/09/10 07:55:08;;;;;;;26.60;22.40;;;;;;;23.06;79.83;101086.41;7382155;19;20455;-75
2023/09/10 07:57:35;;;;;;;22.58;20.23;;;;;;;23.19;79.69;101091.47;7379598;19;20401;-75
2023/09/10 08:00:03;;;;;;;23.92;21.40;;;;;;;23.32;78.94;101089.47;7385983;19;20379;-76
2023/09/10 08:02:36;;;;;;;24.00;20.55;;;;;;;23.44;77.34;101100.16;7385131;19;20375;-76
2023/09/10 08:05:05;;;;;;;27.10;21.90;;;;;;;23.52;77.69;101097.84;7384300;19;20772;-76
2023/09/10 08:07:33;;;;;;;26.13;21.73;;;;;;;23.66;76.95;101098.28;7386245;19;20332;-75
2023/09/10 08:09:59;;;;;;;26.98;20.98;;;;;;;23.84;77.18;101090.94;7388370;19;20344;-75
2023/09/10 08:12:27;;;;;;;22.90;20.48;;;;;;;24.01;76.07;101092.50;7384030;19;20343;-75
2023/09/10 08:14:53;;;;;;;22.20;19.90;;;;;;;24.06;74.99;101085.50;7380831;19;20367;-75
2023/09/10 08:17:21;;;;;;;22.77;20.48;;;;;;;24.17;74.90;101092.63;7384355;19;20379;-75
2023/09/10 08:19:48;;;;;;;24.45;21.27;;;;;;;24.28;74.42;101091.66;7385025;19;20344;-75
2023/09/10 08:22:16;;;;;;;23.67;20.23;;;;;;;24.45;74.37;101085.31;7386436;19;20404;-75
2023/09/10 08:24:43;;;;;;;21.75;19.52;;;;;;;24.59;73.18;101098.22;7385433;19;20352;-75
2023/09/10 08:27:12;;;;;;;21.58;19.48;;;;;;;24.74;73.41;101092.09;7385025;19;20333;-76
2023/09/10 08:29:39;;;;;;;21.33;19.23;;;;;;;24.97;73.42;101095.47;7385006;19;20899;-76
2023/09/10 08:32:06;;;;;;;20.73;18.73;;;;;;;24.98;70.76;101091.69;7384587;19;20361;-76
2023/09/10 08:34:33;;;;;;;19.88;17.05;;;;;;;25.00;70.32;101093.06;7379674;19;20402;-76
2023/09/10 08:37:02;;;;;;;21.77;19.50;;;;;;;25.08;70.35;101090.97;7386296;19;20469;-76
2023/09/10 08:39:29;;;;;;;21.20;17.75;;;;;;;25.09;69.53;101089.84;7385430;19;20352;-76
2023/09/10 08:41:56;;;;;;;21.30;19.17;;;;;;;25.14;69.28;101090.72;7385675;19;20352;-76
2023/09/10 08:44:24;;;;;;;20.00;17.90;;;;;;;25.25;69.80;101086.19;7385456;19;20360;-76
2023/09/10 08:46:55;;;;;;;18.88;16.90;;;;;;;25.49;70.19;101081.13;7383861;19;20439;-76
2023/09/10 08:49:24;;;;;;;19.55;17.58;;;;;;;25.62;67.55;101090.69;7385821;19;20353;-76
2023/09/10 08:51:51;;;;;;;20.20;18.20;;;;;;;25.66;67.01;101094.50;7383851;19;20443;-76
2023/09/10 08:54:18;;;;;;;21.08;18.15;;;;;;;25.80;67.97;101086.69;7382171;19;20361;-77
2023/09/10 08:56:46;;;;;;;19.17;17.17;;;;;;;25.90;67.62;101094.88;7385768;19;20331;-76
2023/09/10 08:59:14;;;;;;;18.50;16.60;;;;;;;26.06;67.33;101092.22;7385768;19;20362;-76
2023/09/10 09:01:44;;;;;;;18.98;16.98;;;;;;;26.27;67.75;101098.47;7390041;19;20368;-76
2023/09/10 09:04:12;;;;;;;16.73;15.02;;;;;;;26.31;65.92;101096.84;7391248;19;20348;-76
2023/09/10 09:06:43;;;;;;;17.45;15.57;;;;;;;26.44;65.38;101097.16;7391065;19;20454;-76
2023/09/10 09:09:12;;;;;;;16.77;15.03;;;;;;;26.53;64.77;101100.13;7392140;19;20325;-76
2023/09/10 09:11:41;;;;;;;18.40;16.25;;;;;;;26.67;63.76;101099.63;7383896;19;20353;-76
2023/09/10 09:14:10;;;;;;;18.33;16.38;;;;;;;26.76;63.88;101104.25;7389315;19;20818;-76
2023/09/10 09:16:39;;;;;;;17.08;15.27;;;;;;;26.83;62.78;101102.03;7394733;19;20368;-76
2023/09/10 09:19:11;;;;;;;18.40;16.50;;;;;;;27.00;62.99;101103.66;7391286;19;20348;-76
2023/09/10 09:21:41;;;;;;;18.58;16.75;;;;;;;27.04;61.98;101112.91;7394912;19;20360;-76
2023/09/10 09:24:10;;;;;;;15.15;13.55;;;;;;;26.97;60.88;101110.47;7390525;19;20375;-76
2023/09/10 09:26:39;;;;;;;16.50;14.65;;;;;;;27.08;61.72;101105.03;7389363;19;20359;-76
2023/09/10 09:29:07;;;;;;;16.50;14.93;;;;;;;27.21;61.51;101105.25;7384937;19;20464;-76
2023/09/10 09:31:34;;;;;;;16.15;14.48;;;;;;;27.37;60.79;101107.94;7391828;19;20363;-76
2023/09/10 09:34:02;;;;;;;14.93;13.32;;;;;;;27.41;58.92;101107.09;7391365;19;20453;-76
2023/09/10 09:36:30;;;;;;;15.45;13.52;;;;;;;27.44;58.41;101103.03;7395814;19;20435;-76
2023/09/10 09:38:57;;;;;;;13.27;11.77;;;;;;;27.39;58.99;101095.69;7391857;19;20892;-76
2023/09/10 09:41:24;;;;;;;14.13;12.63;;;;;;;27.43;58.24;101112.28;7389885;19;20340;-76
2023/09/10 09:43:51;;;;;;;12.60;11.30;;;;;;;27.41;57.76;101109.03;7390500;19;20502;-77
2023/09/10 09:46:18;;;;;;;13.60;12.23;;;;;;;27.49;57.99;101103.00;7389058;19;20428;-77
2023/09/10 09:48:45;;;;;;;15.02;12.38;;;;;;;27.53;57.38;101095.09;7388598;19;20852;-76
2023/09/10 09:51:13;;;;;;;14.02;12.63;;;;;;;27.69;57.49;101098.53;7391228;19;20357;-76
2023/09/10 09:53:40;;;;;;;11.77;10.07;;;;;;;27.80;56.26;101105.59;7392648;19;20374;-77
2023/09/10 09:56:08;;;;;;;11.93;10.15;;;;;;;27.82;56.51;101095.22;7393260;19;20668;-77
2023/09/10 09:58:35;;;;;;;10.35;9.45;;;;;;;27.94;56.00;101090.25;7390776;19;20381;-77
2023/09/10 10:01:01;;;;;;;11.50;9.40;;;;;;;28.12;56.09;101091.53;7389950;19;20404;-77
2023/09/10 10:03:31;;;;;;;10.32;9.23;;;;;;;28.24;55.69;101093.88;7388884;19;20348;-77
2023/09/10 10:05:58;;;;;;;9.27;8.33;;;;;;;28.32;53.68;101084.28;7388003;19;20379;-77
2023/09/10 10:08:27;;;;;;;11.63;10.43;;;;;;;28.32;53.61;101079.63;7387714;19;20419;-77
2023/09/10 10:10:54;;;;;;;11.77;9.68;;;;;;;28.31;53.27;101083.47;7384667;19;20349;-77
2023/09/10 10:13:25;;;;;;;13.50;10.20;;;;;;;28.31;53.48;101080.75;7388711;19;20390;-77
2023/09/10 10:15:54;;;;;;;12.73;10.53;;;;;;;28.46;53.71;101083.34;7388967;19;20356;-77
2023/09/10 10:18:22;;;;;;;11.37;10.17;;;;;;;28.56;53.05;101078.91;7388953;19;20352;-77
2023/09/10 10:20:50;;;;;;;10.20;9.20;;;;;;;28.64;53.07;101081.03;7389344;19;20423;-77
2023/09/10 10:23:17;;;;;;;9.93;8.93;;;;;;;28.64;51.96;101081.84;7388363;19;20356;-77
2023/09/10 10:26:05;;;;;;;12.75;8.77;;;;;;;28.65;52.72;101080.75;7388773;19;20417;-77
2023/09/10 10:28:35;;;;;;;11.35;9.02;;;;;;;28.76;52.91;101078.75;7385525;19;20342;-77
2023/09/10 10:31:14;;;;;;;11.82;8.63;;;;;;;28.81;52.68;101078.69;7384049;19;20317;-77
2023/09/10 10:33:51;;;;;;;9.02;7.88;;;;;;;28.99;52.47;101068.16;7389328;19;20352;-77
2023/09/10 10:36:57;;;;;;;12.23;8.47;;;;;;;29.12;52.36;101063.94;7389224;19;20416;-77
2023/09/10 10:39:53;;;;;;;10.20;9.17;;;;;;;29.16;51.20;101065.78;7384730;19;20364;-77
2023/09/10 10:42:48;;;;;;;10.45;9.45;;;;;;;29.06;51.73;101065.88;7388268;19;20373;-77
2023/09/10 10:45:18;;;;;;;11.20;10.00;;;;;;;29.03;51.79;101064.53;7385080;19;20379;-77
2023/09/10 10:47:47;;;;;;;10.88;9.77;;;;;;;29.09;51.20;101057.09;7387022;19;20383;-77
2023/09/10 10:50:23;;;;;;;11.10;9.57;;;;;;;29.18;51.69;101058.13;7387958;19;20363;-77
2023/09/10 10:53:11;;;;;;;11.20;9.32;;;;;;;29.34;51.91;101055.19;7388804;19;20357;-77
2023/09/10 10:55:39;;;;;;;10.65;9.60;;;;;;;29.39;50.46;101052.38;7388725;19;20900;-77
2023/09/10 10:58:06;;;;;;;12.38;9.45;;;;;;;29.41;50.46;101055.63;7387068;19;20349;-77
2023/09/10 11:00:33;;;;;;;10.70;9.63;;;;;;;29.39;50.95;101046.91;7388201;19;20336;-77
2023/09/10 11:03:15;;;;;;;11.90;10.70;;;;;;;29.45;50.83;101045.75;7386383;19;20348;-77
2023/09/10 11:05:54;;;;;;;11.33;9.77;;;;;;;29.61;50.99;101041.69;7384872;19;20864;-77
2023/09/10 11:08:27;;;;;;;10.80;9.57;;;;;;;29.72;50.30;101038.88;7386142;19;20706;-77
2023/09/10 11:10:54;;;;;;;9.40;8.40;;;;;;;29.84;50.23;101037.31;7387139;19;20356;-77
2023/09/10 11:13:24;;;;;;;10.00;8.40;;;;;;;29.85;49.96;101044.38;7388482;19;20452;-77
2023/09/10 11:16:04;;;;;;;9.10;8.30;;;;;;;29.97;49.12;101038.47;7386519;19;20326;-77
2023/09/10 11:18:37;;;;;;;10.25;9.02;;;;;;;30.11;49.25;101040.44;7385329;19;20361;-77
2023/09/10 11:21:12;;;;;;;9.63;8.63;;;;;;;30.15;49.38;101031.34;7391023;19;20875;-77
2023/09/10 11:23:51;;;;;;;13.43;9.07;;;;;;;30.11;48.32;101034.97;7383051;19;20368;-77